sensor_id;sensor_type;location;lat;lon;timestamp;temperature;humidity
18321;DHT22;54904;54.350;18.664;2023-11-19T00:00:35;6.20;99.90
18321;DHT22;54904;54.350;18.664;2023-11-19T00:03:02;6.20;99.90
18321;DHT22;54904;54.350;18.664;2023-11-19T00:05:29;6.20;99.90
18321;DHT22;54904;54.350;18.664;2023-11-19T00:07:56;6.20;99.90
18321;DHT22;54904;54.350;18.664;2023-11-19T00:10:23;6.20;99.90
18321;DHT22;54904;54.350;18.664;2023-11-19T00:12:52;6.20;99.90
18321;DHT22;54904;54.350;18.664;2023-11-19T00:15:19;6.20;99.90
18321;DHT22;54904;54.350;18.664;2023-11-19T00:17:47;6.20;99.90
18321;DHT22;54904;54.350;18.664;2023-11-19T00:20:16;6.20;99.90
18321;DHT22;54904;54.350;18.664;2023-11-19T00:22:43;6.20;99.90
18321;DHT22;54904;54.350;18.664;2023-11-19T00:25:14;6.20;99.90
18321;DHT22;54904;54.350;18.664;2023-11-19T00:27:41;6.10;99.90
18321;DHT22;54904;54.350;18.664;2023-11-19T00:30:12;6.10;99.90
18321;DHT22;54904;54.350;18.664;2023-11-19T00:32:40;6.10;99.90
18321;DHT22;54904;54.350;18.664;2023-11-19T00:35:08;6.00;99.90
18321;DHT22;54904;54.350;18.664;2023-11-19T00:37:35;6.00;99.90
18321;DHT22;54904;54.350;18.664;2023-11-19T00:40:03;6.00;99.90
18321;DHT22;54904;54.350;18.664;2023-11-19T00:42:31;6.00;99.90
18321;DHT22;54904;54.350;18.664;2023-11-19T00:44:58;5.90;99.90
18321;DHT22;54904;54.350;18.664;2023-11-19T00:47:28;5.90;99.90
18321;DHT22;54904;54.350;18.664;2023-11-19T00:49:56;5.90;99.90
18321;DHT22;54904;54.350;18.664;2023-11-19T00:52:24;5.80;99.90
18321;DHT22;54904;54.350;18.664;2023-11-19T00:54:51;5.80;99.90
18321;DHT22;54904;54.350;18.664;2023-11-19T00:57:19;5.90;99.90
18321;DHT22;54904;54.350;18.664;2023-11-19T00:59:46;5.80;99.90
18321;DHT22;54904;54.350;18.664;2023-11-19T01:02:13;5.80;99.90
18321;DHT22;54904;54.350;18.664;2023-11-19T01:04:42;5.80;99.90
18321;DHT22;54904;54.350;18.664;2023-11-19T01:07:09;5.80;99.90
18321;DHT22;54904;54.350;18.664;2023-11-19T01:09:38;5.80;99.90
18321;DHT22;54904;54.350;18.664;2023-11-19T01:12:06;5.80;99.90
18321;DHT22;54904;54.350;18.664;2023-11-19T01:14:34;5.80;99.90
18321;DHT22;54904;54.350;18.664;2023-11-19T01:17:02;5.80;99.90
18321;DHT22;54904;54.350;18.664;2023-11-19T01:19:30;5.80;99.90
18321;DHT22;54904;54.350;18.664;2023-11-19T01:21:59;5.80;99.90
18321;DHT22;54904;54.350;18.664;2023-11-19T01:24:26;5.80;99.90
18321;DHT22;54904;54.350;18.664;2023-11-19T01:26:54;5.90;99.90
18321;DHT22;54904;54.350;18.664;2023-11-19T01:29:23;5.80;99.90
18321;DHT22;54904;54.350;18.664;2023-11-19T01:31:50;5.90;99.90
18321;DHT22;54904;54.350;18.664;2023-11-19T01:34:19;5.90;99.90
18321;DHT22;54904;54.350;18.664;2023-11-19T01:36:47;5.90;99.90
18321;DHT22;54904;54.350;18.664;2023-11-19T01:39:16;5.90;99.90
18321;DHT22;54904;54.350;18.664;2023-11-19T01:41:43;5.90;99.90
18321;DHT22;54904;54.350;18.664;2023-11-19T01:44:10;5.90;99.90
18321;DHT22;54904;54.350;18.664;2023-11-19T01:46:41;5.90;99.90
18321;DHT22;54904;54.350;18.664;2023-11-19T01:49:09;5.90;99.90
18321;DHT22;54904;54.350;18.664;2023-11-19T01:51:38;5.80;99.90
18321;DHT22;54904;54.350;18.664;2023-11-19T01:54:06;5.80;99.90
18321;DHT22;54904;54.350;18.664;2023-11-19T01:56:35;5.80;99.90
18321;DHT22;54904;54.350;18.664;2023-11-19T01:59:02;5.90;99.90
18321;DHT22;54904;54.350;18.664;2023-11-19T02:01:29;5.90;99.90
18321;DHT22;54904;54.350;18.664;2023-11-19T02:03:58;5.90;99.90
18321;DHT22;54904;54.350;18.664;2023-11-19T02:06:26;5.90;99.90
18321;DHT22;54904;54.350;18.664;2023-11-19T02:08:54;5.80;99.90
18321;DHT22;54904;54.350;18.664;2023-11-19T02:11:21;5.80;99.90
18321;DHT22;54904;54.350;18.664;2023-11-19T02:13:50;5.80;99.90
18321;DHT22;54904;54.350;18.664;2023-11-19T02:16:17;5.80;99.90
18321;DHT22;54904;54.350;18.664;2023-11-19T02:18:44;5.80;99.90
18321;DHT22;54904;54.350;18.664;2023-11-19T02:21:11;5.80;99.90
18321;DHT22;54904;54.350;18.664;2023-11-19T02:23:40;5.90;99.90
18321;DHT22;54904;54.350;18.664;2023-11-19T02:26:14;5.90;99.90
18321;DHT22;54904;54.350;18.664;2023-11-19T02:28:43;5.90;99.90
18321;DHT22;54904;54.350;18.664;2023-11-19T02:31:10;5.90;99.90
18321;DHT22;54904;54.350;18.664;2023-11-19T02:33:38;5.90;99.90
18321;DHT22;54904;54.350;18.664;2023-11-19T02:36:06;5.90;99.90
18321;DHT22;54904;54.350;18.664;2023-11-19T02:38:33;5.90;99.90
18321;DHT22;54904;54.350;18.664;2023-11-19T02:41:03;5.90;99.90
18321;DHT22;54904;54.350;18.664;2023-11-19T02:43:31;5.90;99.90
18321;DHT22;54904;54.350;18.664;2023-11-19T02:46:01;5.90;99.90
18321;DHT22;54904;54.350;18.664;2023-11-19T02:48:29;5.90;99.90
18321;DHT22;54904;54.350;18.664;2023-11-19T02:50:56;5.80;99.90
18321;DHT22;54904;54.350;18.664;2023-11-19T02:53:24;5.80;99.90
18321;DHT22;54904;54.350;18.664;2023-11-19T02:55:54;5.70;99.90
18321;DHT22;54904;54.350;18.664;2023-11-19T02:58:27;5.70;99.90
18321;DHT22;54904;54.350;18.664;2023-11-19T03:00:54;5.60;99.90
18321;DHT22;54904;54.350;18.664;2023-11-19T03:03:27;5.70;99.90
18321;DHT22;54904;54.350;18.664;2023-11-19T03:06:04;5.70;99.90
18321;DHT22;54904;54.350;18.664;2023-11-19T03:08:32;5.70;99.90
18321;DHT22;54904;54.350;18.664;2023-11-19T03:10:59;5.70;99.90
18321;DHT22;54904;54.350;18.664;2023-11-19T03:13:26;5.70;99.90
18321;DHT22;54904;54.350;18.664;2023-11-19T03:15:53;5.70;99.90
18321;DHT22;54904;54.350;18.664;2023-11-19T03:18:20;5.70;99.90
18321;DHT22;54904;54.350;18.664;2023-11-19T03:20:49;5.60;99.90
18321;DHT22;54904;54.350;18.664;2023-11-19T03:23:16;5.70;99.90
18321;DHT22;54904;54.350;18.664;2023-11-19T03:25:43;5.70;99.90
18321;DHT22;54904;54.350;18.664;2023-11-19T03:28:11;5.60;99.90
18321;DHT22;54904;54.350;18.664;2023-11-19T03:30:38;5.60;99.90
18321;DHT22;54904;54.350;18.664;2023-11-19T03:33:05;5.60;99.90
18321;DHT22;54904;54.350;18.664;2023-11-19T03:35:32;5.60;99.90
18321;DHT22;54904;54.350;18.664;2023-11-19T03:38:01;5.60;99.90
18321;DHT22;54904;54.350;18.664;2023-11-19T03:40:28;5.60;99.90
18321;DHT22;54904;54.350;18.664;2023-11-19T03:42:56;5.50;99.90
18321;DHT22;54904;54.350;18.664;2023-11-19T03:45:24;5.50;99.90
18321;DHT22;54904;54.350;18.664;2023-11-19T03:47:51;5.50;99.90
18321;DHT22;54904;54.350;18.664;2023-11-19T03:50:18;5.50;99.90
18321;DHT22;54904;54.350;18.664;2023-11-19T03:52:46;5.50;99.90
18321;DHT22;54904;54.350;18.664;2023-11-19T03:55:15;5.50;99.90
18321;DHT22;54904;54.350;18.664;2023-11-19T03:57:43;5.50;99.90
18321;DHT22;54904;54.350;18.664;2023-11-19T04:00:10;5.50;99.90
18321;DHT22;54904;54.350;18.664;2023-11-19T04:02:40;5.40;99.90
18321;DHT22;54904;54.350;18.664;2023-11-19T04:05:07;5.40;99.90
18321;DHT22;54904;54.350;18.664;2023-11-19T04:07:35;5.30;99.90
18321;DHT22;54904;54.350;18.664;2023-11-19T04:10:03;5.30;99.90
18321;DHT22;54904;54.350;18.664;2023-11-19T04:12:32;5.30;99.90
18321;DHT22;54904;54.350;18.664;2023-11-19T04:14:59;5.20;99.90
18321;DHT22;54904;54.350;18.664;2023-11-19T04:17:26;5.20;99.90
18321;DHT22;54904;54.350;18.664;2023-11-19T04:19:53;5.20;99.90
18321;DHT22;54904;54.350;18.664;2023-11-19T04:22:21;5.20;99.90
18321;DHT22;54904;54.350;18.664;2023-11-19T04:24:48;5.10;99.90
18321;DHT22;54904;54.350;18.664;2023-11-19T04:27:15;5.20;99.90
18321;DHT22;54904;54.350;18.664;2023-11-19T04:29:43;5.10;99.90
18321;DHT22;54904;54.350;18.664;2023-11-19T04:32:11;5.10;99.90
18321;DHT22;54904;54.350;18.664;2023-11-19T04:34:38;5.00;99.90
18321;DHT22;54904;54.350;18.664;2023-11-19T04:37:06;5.00;99.90
18321;DHT22;54904;54.350;18.664;2023-11-19T04:39:33;5.00;99.90
18321;DHT22;54904;54.350;18.664;2023-11-19T04:42:00;5.00;99.90
18321;DHT22;54904;54.350;18.664;2023-11-19T04:44:27;5.00;99.90
18321;DHT22;54904;54.350;18.664;2023-11-19T04:46:56;5.00;99.90
18321;DHT22;54904;54.350;18.664;2023-11-19T04:49:24;5.00;99.90
18321;DHT22;54904;54.350;18.664;2023-11-19T04:51:52;5.00;99.90
18321;DHT22;54904;54.350;18.664;2023-11-19T04:54:19;5.00;99.90
18321;DHT22;54904;54.350;18.664;2023-11-19T04:56:47;5.00;99.90
18321;DHT22;54904;54.350;18.664;2023-11-19T04:59:14;4.90;99.90
18321;DHT22;54904;54.350;18.664;2023-11-19T05:01:41;4.90;99.90
18321;DHT22;54904;54.350;18.664;2023-11-19T05:04:14;5.00;99.90
18321;DHT22;54904;54.350;18.664;2023-11-19T05:06:41;5.00;99.90
18321;DHT22;54904;54.350;18.664;2023-11-19T05:09:08;5.00;99.90
18321;DHT22;54904;54.350;18.664;2023-11-19T05:11:38;4.90;99.90
18321;DHT22;54904;54.350;18.664;2023-11-19T05:14:06;4.90;99.90
18321;DHT22;54904;54.350;18.664;2023-11-19T05:16:35;4.90;99.90
18321;DHT22;54904;54.350;18.664;2023-11-19T05:19:02;4.90;99.90
18321;DHT22;54904;54.350;18.664;2023-11-19T05:21:31;4.90;99.90
18321;DHT22;54904;54.350;18.664;2023-11-19T05:23:58;4.90;99.90
18321;DHT22;54904;54.350;18.664;2023-11-19T05:26:25;4.90;99.90
18321;DHT22;54904;54.350;18.664;2023-11-19T05:28:52;5.00;99.90
18321;DHT22;54904;54.350;18.664;2023-11-19T05:31:19;4.90;99.90
18321;DHT22;54904;54.350;18.664;2023-11-19T05:33:46;4.90;99.90
18321;DHT22;54904;54.350;18.664;2023-11-19T05:36:13;4.90;99.90
18321;DHT22;54904;54.350;18.664;2023-11-19T05:38:42;4.90;99.90
18321;DHT22;54904;54.350;18.664;2023-11-19T05:41:10;4.90;99.90
18321;DHT22;54904;54.350;18.664;2023-11-19T05:43:37;4.90;99.90
18321;DHT22;54904;54.350;18.664;2023-11-19T05:46:06;5.00;99.90
18321;DHT22;54904;54.350;18.664;2023-11-19T05:48:34;4.90;99.90
18321;DHT22;54904;54.350;18.664;2023-11-19T05:51:01;4.90;99.90
18321;DHT22;54904;54.350;18.664;2023-11-19T05:53:28;4.90;99.90
18321;DHT22;54904;54.350;18.664;2023-11-19T05:55:57;4.90;99.90
18321;DHT22;54904;54.350;18.664;2023-11-19T05:58:31;4.90;99.90
18321;DHT22;54904;54.350;18.664;2023-11-19T06:00:58;4.90;99.90
18321;DHT22;54904;54.350;18.664;2023-11-19T06:03:27;4.90;99.90
18321;DHT22;54904;54.350;18.664;2023-11-19T06:05:54;4.90;99.90
18321;DHT22;54904;54.350;18.664;2023-11-19T06:08:21;4.80;99.90
18321;DHT22;54904;54.350;18.664;2023-11-19T06:10:48;4.80;99.90
18321;DHT22;54904;54.350;18.664;2023-11-19T06:13:17;4.80;99.90
18321;DHT22;54904;54.350;18.664;2023-11-19T06:15:45;4.80;99.90
18321;DHT22;54904;54.350;18.664;2023-11-19T06:18:12;4.80;99.90
18321;DHT22;54904;54.350;18.664;2023-11-19T06:20:40;4.80;99.90
18321;DHT22;54904;54.350;18.664;2023-11-19T06:23:07;4.80;99.90
18321;DHT22;54904;54.350;18.664;2023-11-19T06:25:34;4.80;99.90
18321;DHT22;54904;54.350;18.664;2023-11-19T06:28:02;4.80;99.90
18321;DHT22;54904;54.350;18.664;2023-11-19T06:30:30;4.80;99.90
18321;DHT22;54904;54.350;18.664;2023-11-19T06:32:58;4.80;99.90
18321;DHT22;54904;54.350;18.664;2023-11-19T06:35:25;4.70;99.90
18321;DHT22;54904;54.350;18.664;2023-11-19T06:37:52;4.70;99.90
18321;DHT22;54904;54.350;18.664;2023-11-19T06:40:22;4.70;99.90
18321;DHT22;54904;54.350;18.664;2023-11-19T06:42:49;4.70;99.90
18321;DHT22;54904;54.350;18.664;2023-11-19T06:45:18;4.70;99.90
18321;DHT22;54904;54.350;18.664;2023-11-19T06:47:46;4.70;99.90
18321;DHT22;54904;54.350;18.664;2023-11-19T06:50:13;4.70;99.90
18321;DHT22;54904;54.350;18.664;2023-11-19T06:52:40;4.70;99.90
18321;DHT22;54904;54.350;18.664;2023-11-19T06:55:08;4.70;99.90
18321;DHT22;54904;54.350;18.664;2023-11-19T06:57:35;4.70;99.90
18321;DHT22;54904;54.350;18.664;2023-11-19T07:00:03;4.70;99.90
18321;DHT22;54904;54.350;18.664;2023-11-19T07:02:31;4.70;99.90
18321;DHT22;54904;54.350;18.664;2023-11-19T07:05:00;4.70;99.90
18321;DHT22;54904;54.350;18.664;2023-11-19T07:07:27;4.70;99.90
18321;DHT22;54904;54.350;18.664;2023-11-19T07:09:54;4.70;99.90
18321;DHT22;54904;54.350;18.664;2023-11-19T07:12:21;4.80;99.90
18321;DHT22;54904;54.350;18.664;2023-11-19T07:14:48;4.80;99.90
18321;DHT22;54904;54.350;18.664;2023-11-19T07:17:15;4.80;99.90
18321;DHT22;54904;54.350;18.664;2023-11-19T07:19:43;4.70;99.90
18321;DHT22;54904;54.350;18.664;2023-11-19T07:22:11;4.70;99.90
18321;DHT22;54904;54.350;18.664;2023-11-19T07:24:39;4.70;99.90
18321;DHT22;54904;54.350;18.664;2023-11-19T07:27:06;4.70;99.90
18321;DHT22;54904;54.350;18.664;2023-11-19T07:29:34;4.80;99.90
18321;DHT22;54904;54.350;18.664;2023-11-19T07:32:01;4.80;99.90
18321;DHT22;54904;54.350;18.664;2023-11-19T07:34:29;4.80;99.90
18321;DHT22;54904;54.350;18.664;2023-11-19T07:36:55;4.80;99.90
18321;DHT22;54904;54.350;18.664;2023-11-19T07:39:26;4.80;99.90
18321;DHT22;54904;54.350;18.664;2023-11-19T07:41:53;4.80;99.90
18321;DHT22;54904;54.350;18.664;2023-11-19T07:44:20;4.90;99.90
18321;DHT22;54904;54.350;18.664;2023-11-19T07:46:48;4.80;99.90
18321;DHT22;54904;54.350;18.664;2023-11-19T07:49:15;4.80;99.90
18321;DHT22;54904;54.350;18.664;2023-11-19T07:51:42;4.80;99.90
18321;DHT22;54904;54.350;18.664;2023-11-19T07:54:09;4.80;99.90
18321;DHT22;54904;54.350;18.664;2023-11-19T07:56:37;4.90;99.90
18321;DHT22;54904;54.350;18.664;2023-11-19T07:59:04;4.90;99.90
18321;DHT22;54904;54.350;18.664;2023-11-19T08:01:32;4.90;99.90
18321;DHT22;54904;54.350;18.664;2023-11-19T08:03:59;4.90;99.90
18321;DHT22;54904;54.350;18.664;2023-11-19T08:06:27;4.90;99.90
18321;DHT22;54904;54.350;18.664;2023-11-19T08:08:54;4.90;99.90
18321;DHT22;54904;54.350;18.664;2023-11-19T08:11:22;4.90;99.90
18321;DHT22;54904;54.350;18.664;2023-11-19T08:13:52;4.90;99.90
18321;DHT22;54904;54.350;18.664;2023-11-19T08:16:19;4.90;99.90
18321;DHT22;54904;54.350;18.664;2023-11-19T08:18:46;4.90;99.90
18321;DHT22;54904;54.350;18.664;2023-11-19T08:21:13;5.00;99.90
18321;DHT22;54904;54.350;18.664;2023-11-19T08:23:41;5.00;99.90
18321;DHT22;54904;54.350;18.664;2023-11-19T08:26:08;5.00;99.90
18321;DHT22;54904;54.350;18.664;2023-11-19T08:28:35;5.10;99.90
18321;DHT22;54904;54.350;18.664;2023-11-19T08:31:04;5.10;99.90
18321;DHT22;54904;54.350;18.664;2023-11-19T08:33:31;5.10;99.90
18321;DHT22;54904;54.350;18.664;2023-11-19T08:35:59;5.00;99.90
18321;DHT22;54904;54.350;18.664;2023-11-19T08:38:26;5.00;99.90
18321;DHT22;54904;54.350;18.664;2023-11-19T08:40:53;4.90;99.90
18321;DHT22;54904;54.350;18.664;2023-11-19T08:43:25;4.80;99.90
18321;DHT22;54904;54.350;18.664;2023-11-19T08:45:52;4.80;99.90
18321;DHT22;54904;54.350;18.664;2023-11-19T08:48:20;4.80;99.90
18321;DHT22;54904;54.350;18.664;2023-11-19T08:50:47;4.70;99.90
18321;DHT22;54904;54.350;18.664;2023-11-19T08:53:15;4.70;99.90
18321;DHT22;54904;54.350;18.664;2023-11-19T08:55:42;4.70;99.90
18321;DHT22;54904;54.350;18.664;2023-11-19T08:58:09;4.60;99.90
18321;DHT22;54904;54.350;18.664;2023-11-19T09:00:38;4.70;99.90
18321;DHT22;54904;54.350;18.664;2023-11-19T09:03:05;4.70;99.90
18321;DHT22;54904;54.350;18.664;2023-11-19T09:05:36;4.70;99.90
18321;DHT22;54904;54.350;18.664;2023-11-19T09:08:04;4.70;99.90
18321;DHT22;54904;54.350;18.664;2023-11-19T09:10:32;4.80;99.90
18321;DHT22;54904;54.350;18.664;2023-11-19T09:12:59;4.80;99.90
18321;DHT22;54904;54.350;18.664;2023-11-19T09:15:26;4.80;99.90
18321;DHT22;54904;54.350;18.664;2023-11-19T09:17:53;4.90;99.90
18321;DHT22;54904;54.350;18.664;2023-11-19T09:20:20;4.90;99.90
18321;DHT22;54904;54.350;18.664;2023-11-19T09:22:48;4.80;99.90
18321;DHT22;54904;54.350;18.664;2023-11-19T09:25:16;4.90;99.90
18321;DHT22;54904;54.350;18.664;2023-11-19T09:27:44;4.90;99.90
18321;DHT22;54904;54.350;18.664;2023-11-19T09:30:12;5.00;99.90
18321;DHT22;54904;54.350;18.664;2023-11-19T09:32:39;5.00;99.90
18321;DHT22;54904;54.350;18.664;2023-11-19T09:35:06;4.90;99.90
18321;DHT22;54904;54.350;18.664;2023-11-19T09:37:34;5.00;99.90
18321;DHT22;54904;54.350;18.664;2023-11-19T09:40:02;5.00;99.90
18321;DHT22;54904;54.350;18.664;2023-11-19T09:42:33;4.90;99.90
18321;DHT22;54904;54.350;18.664;2023-11-19T09:45:07;4.90;99.90
18321;DHT22;54904;54.350;18.664;2023-11-19T09:47:39;4.90;99.90
18321;DHT22;54904;54.350;18.664;2023-11-19T09:50:07;4.90;99.90
18321;DHT22;54904;54.350;18.664;2023-11-19T09:52:37;4.90;99.90
18321;DHT22;54904;54.350;18.664;2023-11-19T09:55:06;4.90;99.90
18321;DHT22;54904;54.350;18.664;2023-11-19T09:57:35;4.80;99.90
18321;DHT22;54904;54.350;18.664;2023-11-19T10:00:04;4.80;99.90
18321;DHT22;54904;54.350;18.664;2023-11-19T10:02:33;4.70;99.90
18321;DHT22;54904;54.350;18.664;2023-11-19T10:05:05;4.80;99.90
18321;DHT22;54904;54.350;18.664;2023-11-19T10:07:36;4.80;99.90
18321;DHT22;54904;54.350;18.664;2023-11-19T10:10:06;4.70;99.90
18321;DHT22;54904;54.350;18.664;2023-11-19T10:12:34;4.70;99.90
18321;DHT22;54904;54.350;18.664;2023-11-19T10:15:01;4.60;99.90
18321;DHT22;54904;54.350;18.664;2023-11-19T10:17:29;4.60;99.90
18321;DHT22;54904;54.350;18.664;2023-11-19T10:19:59;4.60;99.90
18321;DHT22;54904;54.350;18.664;2023-11-19T10:22:27;4.60;99.90
18321;DHT22;54904;54.350;18.664;2023-11-19T10:24:54;4.70;99.90
18321;DHT22;54904;54.350;18.664;2023-11-19T10:27:25;4.70;99.90
18321;DHT22;54904;54.350;18.664;2023-11-19T10:29:52;4.60;99.90
18321;DHT22;54904;54.350;18.664;2023-11-19T10:32:19;4.60;99.90
18321;DHT22;54904;54.350;18.664;2023-11-19T10:34:46;4.70;99.90
18321;DHT22;54904;54.350;18.664;2023-11-19T10:37:28;4.70;99.90
18321;DHT22;54904;54.350;18.664;2023-11-19T10:39:57;4.70;99.90
18321;DHT22;54904;54.350;18.664;2023-11-19T10:42:26;4.70;99.90
18321;DHT22;54904;54.350;18.664;2023-11-19T10:44:53;4.70;99.90
18321;DHT22;54904;54.350;18.664;2023-11-19T10:47:20;4.80;99.90
18321;DHT22;54904;54.350;18.664;2023-11-19T10:49:49;4.80;99.90
18321;DHT22;54904;54.350;18.664;2023-11-19T10:52:18;4.80;99.90
18321;DHT22;54904;54.350;18.664;2023-11-19T10:54:49;4.80;99.90
18321;DHT22;54904;54.350;18.664;2023-11-19T10:57:20;4.80;99.90
18321;DHT22;54904;54.350;18.664;2023-11-19T10:59:52;4.80;99.90
18321;DHT22;54904;54.350;18.664;2023-11-19T11:02:24;4.80;99.90
18321;DHT22;54904;54.350;18.664;2023-11-19T11:04:54;4.80;99.90
18321;DHT22;54904;54.350;18.664;2023-11-19T11:07:22;4.80;99.90
18321;DHT22;54904;54.350;18.664;2023-11-19T11:09:52;4.90;99.90
18321;DHT22;54904;54.350;18.664;2023-11-19T11:12:21;4.80;99.90
18321;DHT22;54904;54.350;18.664;2023-11-19T11:14:51;4.90;99.90
18321;DHT22;54904;54.350;18.664;2023-11-19T11:17:20;4.90;99.90
18321;DHT22;54904;54.350;18.664;2023-11-19T11:19:51;4.90;99.90
18321;DHT22;54904;54.350;18.664;2023-11-19T11:22:18;4.90;99.90
18321;DHT22;54904;54.350;18.664;2023-11-19T11:25:02;4.90;99.90
18321;DHT22;54904;54.350;18.664;2023-11-19T11:27:56;4.90;99.90
18321;DHT22;54904;54.350;18.664;2023-11-19T11:30:38;4.90;99.90
18321;DHT22;54904;54.350;18.664;2023-11-19T11:33:21;4.80;99.90
18321;DHT22;54904;54.350;18.664;2023-11-19T11:35:58;4.90;99.90
18321;DHT22;54904;54.350;18.664;2023-11-19T11:38:28;4.90;99.90
18321;DHT22;54904;54.350;18.664;2023-11-19T11:41:16;4.90;99.90
18321;DHT22;54904;54.350;18.664;2023-11-19T11:43:45;4.90;99.90
18321;DHT22;54904;54.350;18.664;2023-11-19T11:49:27;5.00;99.90
18321;DHT22;54904;54.350;18.664;2023-11-19T11:52:01;5.00;99.90
18321;DHT22;54904;54.350;18.664;2023-11-19T11:54:29;5.00;99.90
18321;DHT22;54904;54.350;18.664;2023-11-19T11:57:04;5.00;99.90
18321;DHT22;54904;54.350;18.664;2023-11-19T11:59:42;4.90;99.90
18321;DHT22;54904;54.350;18.664;2023-11-19T12:02:11;4.90;99.90
18321;DHT22;54904;54.350;18.664;2023-11-19T12:04:40;4.90;99.90
18321;DHT22;54904;54.350;18.664;2023-11-19T12:07:11;4.90;99.90
18321;DHT22;54904;54.350;18.664;2023-11-19T12:09:40;4.90;99.90
18321;DHT22;54904;54.350;18.664;2023-11-19T12:12:18;4.90;99.90
18321;DHT22;54904;54.350;18.664;2023-11-19T12:15:08;4.90;99.90
18321;DHT22;54904;54.350;18.664;2023-11-19T12:17:46;4.90;99.90
18321;DHT22;54904;54.350;18.664;2023-11-19T12:20:17;4.90;99.90
18321;DHT22;54904;54.350;18.664;2023-11-19T12:22:46;4.90;99.90
18321;DHT22;54904;54.350;18.664;2023-11-19T12:25:15;4.90;99.90
18321;DHT22;54904;54.350;18.664;2023-11-19T12:27:45;4.80;99.90
18321;DHT22;54904;54.350;18.664;2023-11-19T12:30:12;4.80;99.90
18321;DHT22;54904;54.350;18.664;2023-11-19T12:32:40;4.80;99.90
18321;DHT22;54904;54.350;18.664;2023-11-19T12:35:08;4.80;99.90
18321;DHT22;54904;54.350;18.664;2023-11-19T12:37:46;4.80;99.90
18321;DHT22;54904;54.350;18.664;2023-11-19T12:40:15;4.90;99.90
18321;DHT22;54904;54.350;18.664;2023-11-19T12:42:43;4.90;99.90
18321;DHT22;54904;54.350;18.664;2023-11-19T12:45:10;4.90;99.90
18321;DHT22;54904;54.350;18.664;2023-11-19T12:47:38;4.90;99.90
18321;DHT22;54904;54.350;18.664;2023-11-19T12:50:06;4.90;99.90
18321;DHT22;54904;54.350;18.664;2023-11-19T12:52:34;5.00;99.90
18321;DHT22;54904;54.350;18.664;2023-11-19T12:55:03;5.00;99.90
18321;DHT22;54904;54.350;18.664;2023-11-19T12:57:39;5.00;99.90
18321;DHT22;54904;54.350;18.664;2023-11-19T13:00:07;5.00;99.90
18321;DHT22;54904;54.350;18.664;2023-11-19T13:02:45;5.00;99.90
18321;DHT22;54904;54.350;18.664;2023-11-19T13:05:23;5.00;99.90
18321;DHT22;54904;54.350;18.664;2023-11-19T13:07:57;5.00;99.90
18321;DHT22;54904;54.350;18.664;2023-11-19T13:10:26;4.90;99.90
18321;DHT22;54904;54.350;18.664;2023-11-19T13:13:04;4.90;99.90
18321;DHT22;54904;54.350;18.664;2023-11-19T13:15:31;4.90;99.90
18321;DHT22;54904;54.350;18.664;2023-11-19T13:17:58;4.90;99.90
18321;DHT22;54904;54.350;18.664;2023-11-19T13:20:25;5.00;99.90
18321;DHT22;54904;54.350;18.664;2023-11-19T13:22:56;4.90;99.90
18321;DHT22;54904;54.350;18.664;2023-11-19T13:25:22;5.00;99.90
18321;DHT22;54904;54.350;18.664;2023-11-19T13:27:51;4.90;99.90
18321;DHT22;54904;54.350;18.664;2023-11-19T13:30:18;4.40;99.90
18321;DHT22;54904;54.350;18.664;2023-11-19T13:32:46;5.00;99.90
18321;DHT22;54904;54.350;18.664;2023-11-19T13:35:13;5.00;99.90
18321;DHT22;54904;54.350;18.664;2023-11-19T13:37:40;5.00;99.90
18321;DHT22;54904;54.350;18.664;2023-11-19T13:40:08;5.00;99.90
18321;DHT22;54904;54.350;18.664;2023-11-19T13:42:36;5.00;99.90
18321;DHT22;54904;54.350;18.664;2023-11-19T13:45:09;4.90;99.90
18321;DHT22;54904;54.350;18.664;2023-11-19T13:47:38;4.90;99.90
18321;DHT22;54904;54.350;18.664;2023-11-19T13:50:08;4.90;99.90
18321;DHT22;54904;54.350;18.664;2023-11-19T13:52:36;4.90;99.90
18321;DHT22;54904;54.350;18.664;2023-11-19T13:55:06;5.00;99.90
18321;DHT22;54904;54.350;18.664;2023-11-19T13:57:34;5.00;99.90
18321;DHT22;54904;54.350;18.664;2023-11-19T14:00:02;5.00;99.90
18321;DHT22;54904;54.350;18.664;2023-11-19T14:02:36;5.00;99.90
18321;DHT22;54904;54.350;18.664;2023-11-19T14:05:03;5.00;99.90
18321;DHT22;54904;54.350;18.664;2023-11-19T14:07:31;5.00;99.90
18321;DHT22;54904;54.350;18.664;2023-11-19T14:09:58;5.00;99.90
18321;DHT22;54904;54.350;18.664;2023-11-19T14:12:25;5.00;99.90
18321;DHT22;54904;54.350;18.664;2023-11-19T14:14:52;5.00;99.90
18321;DHT22;54904;54.350;18.664;2023-11-19T14:17:20;5.00;99.90
18321;DHT22;54904;54.350;18.664;2023-11-19T14:19:48;5.00;99.90
18321;DHT22;54904;54.350;18.664;2023-11-19T14:22:15;5.10;99.90
18321;DHT22;54904;54.350;18.664;2023-11-19T14:24:43;5.10;99.90
18321;DHT22;54904;54.350;18.664;2023-11-19T14:27:10;5.10;99.90
18321;DHT22;54904;54.350;18.664;2023-11-19T14:29:37;5.10;99.90
18321;DHT22;54904;54.350;18.664;2023-11-19T14:32:05;5.10;99.90
18321;DHT22;54904;54.350;18.664;2023-11-19T14:34:33;5.10;99.90
18321;DHT22;54904;54.350;18.664;2023-11-19T14:37:01;5.10;99.90
18321;DHT22;54904;54.350;18.664;2023-11-19T14:39:28;5.10;99.90
18321;DHT22;54904;54.350;18.664;2023-11-19T14:41:56;5.10;99.90
18321;DHT22;54904;54.350;18.664;2023-11-19T14:44:27;5.10;99.90
18321;DHT22;54904;54.350;18.664;2023-11-19T14:46:55;5.10;99.90
18321;DHT22;54904;54.350;18.664;2023-11-19T14:49:22;5.10;99.90
18321;DHT22;54904;54.350;18.664;2023-11-19T14:51:50;5.10;99.90
18321;DHT22;54904;54.350;18.664;2023-11-19T14:54:18;5.00;99.90
18321;DHT22;54904;54.350;18.664;2023-11-19T14:56:45;5.10;99.90
18321;DHT22;54904;54.350;18.664;2023-11-19T14:59:12;5.10;99.90
18321;DHT22;54904;54.350;18.664;2023-11-19T15:01:39;5.10;99.90
18321;DHT22;54904;54.350;18.664;2023-11-19T15:04:07;5.10;99.90
18321;DHT22;54904;54.350;18.664;2023-11-19T15:06:34;5.10;99.90
18321;DHT22;54904;54.350;18.664;2023-11-19T15:09:01;5.10;99.90
18321;DHT22;54904;54.350;18.664;2023-11-19T15:11:30;5.10;99.90
18321;DHT22;54904;54.350;18.664;2023-11-19T15:13:57;5.10;99.90
18321;DHT22;54904;54.350;18.664;2023-11-19T15:16:25;5.10;99.90
18321;DHT22;54904;54.350;18.664;2023-11-19T15:18:57;5.20;99.90
18321;DHT22;54904;54.350;18.664;2023-11-19T15:21:26;5.10;99.90
18321;DHT22;54904;54.350;18.664;2023-11-19T15:23:54;5.10;99.90
18321;DHT22;54904;54.350;18.664;2023-11-19T15:26:22;5.10;99.90
18321;DHT22;54904;54.350;18.664;2023-11-19T15:28:50;5.10;99.90
18321;DHT22;54904;54.350;18.664;2023-11-19T15:31:21;5.10;99.90
18321;DHT22;54904;54.350;18.664;2023-11-19T15:33:48;5.10;99.90
18321;DHT22;54904;54.350;18.664;2023-11-19T15:36:16;5.10;99.90
18321;DHT22;54904;54.350;18.664;2023-11-19T15:38:43;5.10;99.90
18321;DHT22;54904;54.350;18.664;2023-11-19T15:41:10;5.10;99.90